Time;durP1;ratioP1;P1;durP2;ratioP2;P2;SDS_P1;SDS_P2;PMS_P1;PMS_P2;Temp;Humidity;BMP_temperature;BMP_pressure;BME280_temperature;BME280_humidity;BME280_pressure;Samples;Min_cycle;Max_cycle;Signal;HPM_P1;HPM_P2
2022/11/11 00:00:59;;;;;;;5.23;3.13;;;;;;;;;;4954693;28;20468;-53
2022/11/11 00:03:25;;;;;;;2.87;2.43;;;;;;;;;;4909527;28;20457;-55
2022/11/11 00:05:51;;;;;;;4.47;3.57;;;;;;;;;;4956354;28;22292;-55
2022/11/11 00:08:16;;;;;;;2.90;2.40;;;;;;;;;;4950887;28;21523;-54
2022/11/11 00:10:43;;;;;;;4.60;3.00;;;;;;;;;;4951903;28;20457;-54
2022/11/11 00:13:09;;;;;;;16.00;3.50;;;;;;;;;;4936403;28;20449;-55
2022/11/11 00:15:36;;;;;;;7.73;2.97;;;;;;;;;;4959524;28;20488;-56
2022/11/11 00:26:16;;;;;;;7.27;3.33;;;;;;;;;;4959505;28;20488;-56
2022/11/11 00:28:42;;;;;;;5.07;2.60;;;;;;;;;;4939195;28;20834;-56
2022/11/11 00:31:09;;;;;;;5.23;2.47;;;;;;;;;;4957578;28;20444;-55
2022/11/11 00:33:35;;;;;;;7.30;2.70;;;;;;;;;;4912878;28;20465;-54
2022/11/11 00:36:01;;;;;;;6.30;2.90;;;;;;;;;;4962776;28;20806;-55
2022/11/11 00:38:45;;;;;;;5.10;3.07;;;;;;;;;;4954496;28;20488;-55
2022/11/11 00:41:12;;;;;;;7.70;2.90;;;;;;;;;;4958209;28;20472;-55
2022/11/11 00:43:37;;;;;;;6.00;2.93;;;;;;;;;;4937116;28;20478;-55
2022/11/11 00:51:33;;;;;;;3.33;2.40;;;;;;;;;;4958364;28;20590;-55
2022/11/11 00:53:59;;;;;;;4.10;2.60;;;;;;;;;;4937621;28;20445;-56
2022/11/11 00:56:25;;;;;;;4.13;3.83;;;;;;;;;;4957533;28;20473;-54
2022/11/11 00:58:51;;;;;;;4.77;2.63;;;;;;;;;;4933712;28;20559;-55
2022/11/11 01:01:17;;;;;;;2.80;2.47;;;;;;;;;;4955897;28;20858;-55
2022/11/11 01:03:43;;;;;;;3.87;2.93;;;;;;;;;;4934903;28;21329;-55
2022/11/11 01:06:09;;;;;;;4.43;2.83;;;;;;;;;;4958445;28;20499;-53
2022/11/11 01:08:35;;;;;;;3.80;2.53;;;;;;;;;;4922948;28;20449;-54
2022/11/11 01:11:01;;;;;;;3.10;2.50;;;;;;;;;;4952513;28;20542;-55
2022/11/11 01:13:28;;;;;;;4.83;2.50;;;;;;;;;;4936975;28;21073;-56
2022/11/11 01:15:57;;;;;;;5.67;3.30;;;;;;;;;;4958674;28;20430;-55
2022/11/11 01:18:24;;;;;;;4.87;2.93;;;;;;;;;;4938549;28;20492;-56
2022/11/11 01:21:20;;;;;;;5.43;3.20;;;;;;;;;;4962331;28;20438;-56
2022/11/11 01:23:46;;;;;;;5.67;2.93;;;;;;;;;;4951330;28;20441;-57
2022/11/11 01:26:15;;;;;;;2.17;1.93;;;;;;;;;;4957608;28;20442;-55
2022/11/11 01:28:41;;;;;;;5.63;2.50;;;;;;;;;;4956184;28;20461;-55
2022/11/11 01:31:08;;;;;;;3.40;2.03;;;;;;;;;;4962249;28;20661;-55
2022/11/11 01:33:34;;;;;;;8.73;2.73;;;;;;;;;;4930331;28;20473;-55
2022/11/11 01:36:08;;;;;;;4.43;2.30;;;;;;;;;;4961219;28;20438;-55
2022/11/11 01:38:34;;;;;;;5.80;3.97;;;;;;;;;;4923004;28;21195;-56
2022/11/11 01:41:00;;;;;;;3.40;2.13;;;;;;;;;;4954158;28;20425;-55
2022/11/11 01:43:26;;;;;;;2.67;2.20;;;;;;;;;;4929851;28;20449;-55
2022/11/11 01:45:58;;;;;;;4.13;2.40;;;;;;;;;;4955414;28;20445;-54
2022/11/11 01:51:14;;;;;;;4.70;2.70;;;;;;;;;;4955024;28;20453;-54
2022/11/11 01:53:40;;;;;;;2.97;1.87;;;;;;;;;;4932115;28;20473;-54
2022/11/11 01:56:06;;;;;;;3.50;2.90;;;;;;;;;;4943135;28;20472;-54
2022/11/11 01:58:32;;;;;;;6.43;2.80;;;;;;;;;;4932338;28;20524;-55
2022/11/11 02:00:58;;;;;;;3.50;2.83;;;;;;;;;;4933154;28;20530;-55
2022/11/11 02:03:24;;;;;;;4.00;3.37;;;;;;;;;;4923680;28;20955;-53
2022/11/11 02:05:54;;;;;;;4.00;2.30;;;;;;;;;;4960214;28;20438;-55
2022/11/11 02:08:33;;;;;;;3.83;2.63;;;;;;;;;;4913599;28;20537;-56
2022/11/11 02:11:04;;;;;;;3.23;2.90;;;;;;;;;;4944974;28;20460;-56
2022/11/11 02:16:15;;;;;;;3.50;3.00;;;;;;;;;;4933202;28;20472;-55
2022/11/11 02:18:41;;;;;;;7.20;3.20;;;;;;;;;;4944911;28;20512;-56
2022/11/11 02:21:07;;;;;;;5.37;2.87;;;;;;;;;;4941840;28;20954;-57
2022/11/11 02:23:38;;;;;;;3.87;2.77;;;;;;;;;;4927987;28;21120;-55
2022/11/11 02:26:04;;;;;;;3.80;2.77;;;;;;;;;;4935539;28;20537;-55
2022/11/11 02:28:30;;;;;;;4.03;2.90;;;;;;;;;;4941281;28;20449;-55
2022/11/11 02:30:56;;;;;;;4.00;3.00;;;;;;;;;;4939131;28;20446;-57
2022/11/11 02:33:22;;;;;;;5.13;4.00;;;;;;;;;;4955264;28;20437;-55
2022/11/11 02:35:57;;;;;;;5.80;3.40;;;;;;;;;;4956300;28;20529;-55
2022/11/11 02:38:24;;;;;;;7.47;3.40;;;;;;;;;;4920789;28;20489;-55
2022/11/11 02:43:34;;;;;;;4.77;3.10;;;;;;;;;;4947523;28;20811;-56
2022/11/11 02:46:09;;;;;;;3.87;3.17;;;;;;;;;;4942038;28;20446;-56
2022/11/11 02:48:37;;;;;;;5.63;3.00;;;;;;;;;;4916449;28;20511;-55
2022/11/11 02:51:05;;;;;;;5.90;2.93;;;;;;;;;;4958949;28;20458;-55
2022/11/11 02:53:31;;;;;;;4.20;2.83;;;;;;;;;;4935253;28;20437;-53
2022/11/11 02:55:57;;;;;;;4.67;2.60;;;;;;;;;;4960763;28;20442;-55
2022/11/11 02:58:23;;;;;;;4.07;2.80;;;;;;;;;;4939200;28;20878;-55
2022/11/11 03:00:49;;;;;;;4.27;2.47;;;;;;;;;;4954661;28;20496;-55
2022/11/11 03:03:15;;;;;;;3.37;2.43;;;;;;;;;;4938848;28;20438;-54
2022/11/11 03:05:41;;;;;;;4.63;2.60;;;;;;;;;;4957504;28;20545;-56
2022/11/11 03:08:07;;;;;;;4.40;2.67;;;;;;;;;;4933315;28;20466;-54
2022/11/11 03:10:33;;;;;;;2.93;2.13;;;;;;;;;;4955942;28;20537;-54
2022/11/11 03:12:59;;;;;;;3.10;2.80;;;;;;;;;;4950309;28;20442;-56
2022/11/11 03:15:25;;;;;;;3.53;2.73;;;;;;;;;;4958002;28;20466;-55
2022/11/11 03:17:51;;;;;;;2.83;2.60;;;;;;;;;;4892673;28;20481;-55
2022/11/11 03:23:05;;;;;;;3.60;3.30;;;;;;;;;;4937566;28;20445;-54
2022/11/11 03:25:37;;;;;;;6.63;3.00;;;;;;;;;;4960011;28;20430;-54
2022/11/11 03:28:26;;;;;;;4.33;2.50;;;;;;;;;;4950088;28;20442;-53
2022/11/11 03:30:52;;;;;;;4.43;2.80;;;;;;;;;;4960199;28;20938;-55
2022/11/11 03:33:18;;;;;;;3.90;3.10;;;;;;;;;;4937540;28;20955;-54
2022/11/11 03:35:47;;;;;;;3.47;3.17;;;;;;;;;;4950185;28;20476;-55
2022/11/11 03:38:22;;;;;;;3.83;2.30;;;;;;;;;;4926805;28;20508;-54
2022/11/11 03:40:48;;;;;;;5.87;3.00;;;;;;;;;;4959990;28;20961;-54
2022/11/11 03:43:15;;;;;;;2.33;2.10;;;;;;;;;;4940346;28;20438;-54
2022/11/11 03:45:41;;;;;;;5.60;2.80;;;;;;;;;;4956519;28;20463;-55
2022/11/11 03:48:07;;;;;;;5.97;2.87;;;;;;;;;;4952040;28;20905;-55
2022/11/11 03:50:33;;;;;;;4.30;2.20;;;;;;;;;;4956794;28;20509;-55
2022/11/11 03:52:59;;;;;;;4.93;3.30;;;;;;;;;;4914554;28;20453;-54
2022/11/11 03:55:25;;;;;;;5.53;2.97;;;;;;;;;;4937292;28;20952;-55
2022/11/11 03:57:51;;;;;;;4.47;2.70;;;;;;;;;;4954959;28;20478;-55
2022/11/11 04:00:24;;;;;;;3.50;2.30;;;;;;;;;;4957887;28;20429;-55
2022/11/11 04:11:12;;;;;;;5.57;2.57;;;;;;;;;;4957605;28;21034;-55
2022/11/11 04:16:23;;;;;;;4.43;2.37;;;;;;;;;;4942652;28;20485;-55
2022/11/11 04:21:43;;;;;;;4.90;2.97;;;;;;;;;;4950873;28;20429;-55
2022/11/11 04:26:55;;;;;;;3.33;2.83;;;;;;;;;;4954386;28;20449;-54
2022/11/11 04:29:27;;;;;;;3.57;2.40;;;;;;;;;;4954908;28;20541;-54
2022/11/11 04:34:38;;;;;;;3.70;2.87;;;;;;;;;;4948361;28;20656;-54
2022/11/11 04:37:04;;;;;;;6.83;2.90;;;;;;;;;;4918443;28;20978;-53
2022/11/11 04:42:14;;;;;;;5.57;3.23;;;;;;;;;;4949396;28;20428;-53
2022/11/11 04:47:24;;;;;;;3.97;3.00;;;;;;;;;;4954248;28;20480;-55
2022/11/11 04:49:50;;;;;;;3.70;2.80;;;;;;;;;;4945763;28;20438;-53
2022/11/11 04:52:25;;;;;;;4.73;2.90;;;;;;;;;;4952054;28;20533;-57
2022/11/11 04:57:43;;;;;;;5.83;2.73;;;;;;;;;;4960278;28;20492;-55
2022/11/11 05:00:10;;;;;;;4.97;3.00;;;;;;;;;;4959326;28;20472;-55
2022/11/11 05:05:21;;;;;;;6.60;3.57;;;;;;;;;;4964485;28;20861;-55
2022/11/11 05:10:31;;;;;;;4.67;3.17;;;;;;;;;;4959314;28;20457;-55
2022/11/11 05:21:19;;;;;;;5.40;3.27;;;;;;;;;;4941255;28;20442;-55
2022/11/11 05:21:19;;;;;;;4.43;3.00;;;;;;;;;;4957146;28;20467;-54
2022/11/11 05:26:30;;;;;;;5.10;3.70;;;;;;;;;;4955308;28;20528;-59
2022/11/11 05:28:56;;;;;;;3.77;3.00;;;;;;;;;;4909058;28;20450;-56
2022/11/11 05:31:22;;;;;;;6.23;3.10;;;;;;;;;;4955759;28;20985;-57
2022/11/11 05:33:48;;;;;;;4.50;3.33;;;;;;;;;;4935842;28;20449;-56
2022/11/11 05:36:14;;;;;;;3.57;3.27;;;;;;;;;;4952247;28;20916;-57
2022/11/11 05:38:39;;;;;;;4.80;2.70;;;;;;;;;;4951624;28;20489;-57
2022/11/11 05:41:06;;;;;;;3.83;2.93;;;;;;;;;;4948050;28;20437;-57
2022/11/11 05:43:32;;;;;;;5.30;3.40;;;;;;;;;;4949951;28;20457;-58
2022/11/11 05:45:58;;;;;;;5.30;4.50;;;;;;;;;;4923782;28;20458;-57
2022/11/11 05:48:24;;;;;;;6.40;2.80;;;;;;;;;;4953971;28;20432;-56
2022/11/11 05:50:50;;;;;;;4.77;3.20;;;;;;;;;;4926229;28;21384;-56
2022/11/11 05:53:16;;;;;;;3.57;2.93;;;;;;;;;;4938744;28;20456;-57
2022/11/11 05:55:42;;;;;;;3.60;3.03;;;;;;;;;;4946900;28;20534;-56
2022/11/11 05:58:07;;;;;;;5.73;3.70;;;;;;;;;;4956869;28;20477;-56
2022/11/11 06:00:33;;;;;;;4.90;3.33;;;;;;;;;;4908166;28;21232;-56
2022/11/11 06:03:04;;;;;;;3.63;2.90;;;;;;;;;;4960116;28;21336;-55
2022/11/11 06:05:30;;;;;;;5.27;3.70;;;;;;;;;;4932729;28;20444;-57
2022/11/11 06:07:56;;;;;;;7.47;3.13;;;;;;;;;;4956767;28;20446;-57
2022/11/11 06:10:31;;;;;;;4.53;3.07;;;;;;;;;;4952864;28;20437;-56
2022/11/11 06:13:01;;;;;;;6.80;3.27;;;;;;;;;;4950950;28;20557;-56
2022/11/11 06:15:27;;;;;;;5.17;3.83;;;;;;;;;;4949728;28;20441;-56
2022/11/11 06:17:53;;;;;;;5.20;3.13;;;;;;;;;;4956944;28;20500;-56
2022/11/11 06:20:19;;;;;;;4.27;3.03;;;;;;;;;;4943275;28;21211;-57
2022/11/11 06:22:56;;;;;;;6.10;3.37;;;;;;;;;;4949297;28;20452;-56
2022/11/11 06:28:14;;;;;;;4.20;3.40;;;;;;;;;;4956847;28;21567;-57
2022/11/11 06:30:40;;;;;;;6.20;3.70;;;;;;;;;;4949081;28;21206;-56
2022/11/11 06:33:06;;;;;;;3.67;3.03;;;;;;;;;;4961963;28;20473;-56
2022/11/11 06:35:36;;;;;;;4.47;3.20;;;;;;;;;;4915726;28;22053;-56
2022/11/11 06:38:05;;;;;;;3.60;2.87;;;;;;;;;;4933011;28;21015;-56
2022/11/11 06:40:31;;;;;;;4.43;3.47;;;;;;;;;;4959046;28;20438;-56
2022/11/11 06:42:57;;;;;;;6.10;3.87;;;;;;;;;;4955523;28;20501;-56
2022/11/11 06:45:24;;;;;;;5.00;3.37;;;;;;;;;;4957559;28;20456;-56
2022/11/11 06:47:49;;;;;;;4.70;3.37;;;;;;;;;;4911010;28;20434;-54
2022/11/11 06:50:15;;;;;;;4.30;3.60;;;;;;;;;;4961864;28;20801;-56
2022/11/11 06:52:41;;;;;;;4.77;3.07;;;;;;;;;;4930416;28;20826;-55
2022/11/11 06:55:08;;;;;;;5.27;3.80;;;;;;;;;;4925226;28;20449;-57
2022/11/11 06:57:33;;;;;;;5.23;4.30;;;;;;;;;;4960534;28;20486;-55
2022/11/11 06:59:59;;;;;;;6.00;4.17;;;;;;;;;;4943449;28;23000;-58
2022/11/11 07:02:25;;;;;;;5.70;3.97;;;;;;;;;;4961980;28;20445;-57
2022/11/11 07:04:51;;;;;;;4.30;3.77;;;;;;;;;;4946560;28;20430;-58
2022/11/11 07:07:17;;;;;;;7.63;3.33;;;;;;;;;;4953160;28;20468;-56
2022/11/11 07:09:44;;;;;;;5.30;3.93;;;;;;;;;;4938366;28;20430;-57
2022/11/11 07:12:10;;;;;;;7.30;4.70;;;;;;;;;;4945554;28;21173;-57
2022/11/11 07:14:36;;;;;;;7.20;2.90;;;;;;;;;;4951110;28;20426;-56
2022/11/11 07:17:02;;;;;;;6.10;3.00;;;;;;;;;;4946426;28;20454;-56
2022/11/11 07:19:28;;;;;;;5.33;3.13;;;;;;;;;;4952458;28;20460;-57
2022/11/11 07:21:54;;;;;;;3.00;2.57;;;;;;;;;;4950150;28;20819;-57
2022/11/11 07:24:20;;;;;;;4.67;3.10;;;;;;;;;;4936811;28;20562;-57
2022/11/11 07:26:46;;;;;;;8.60;3.07;;;;;;;;;;4949280;28;20446;-56
2022/11/11 07:29:14;;;;;;;4.87;3.67;;;;;;;;;;4945602;28;21218;-57
2022/11/11 07:31:39;;;;;;;6.67;3.90;;;;;;;;;;4956126;28;20546;-57
2022/11/11 07:34:05;;;;;;;4.13;3.47;;;;;;;;;;4943081;28;20584;-58
2022/11/11 07:36:31;;;;;;;4.73;3.40;;;;;;;;;;4945136;28;20533;-55
2022/11/11 07:38:57;;;;;;;4.00;3.33;;;;;;;;;;4944186;28;20536;-55
2022/11/11 07:41:23;;;;;;;5.57;3.50;;;;;;;;;;4959013;28;20426;-55
2022/11/11 07:43:49;;;;;;;4.67;4.07;;;;;;;;;;4950833;28;20446;-56
2022/11/11 07:46:15;;;;;;;6.83;3.57;;;;;;;;;;4926012;28;20430;-55
2022/11/11 07:48:41;;;;;;;4.70;3.50;;;;;;;;;;4963827;28;20430;-55
2022/11/11 07:51:07;;;;;;;5.43;3.83;;;;;;;;;;4960732;28;20460;-55
2022/11/11 07:53:33;;;;;;;8.57;4.20;;;;;;;;;;4965157;28;20434;-55
2022/11/11 07:55:59;;;;;;;9.83;4.20;;;;;;;;;;4912277;28;20448;-57
2022/11/11 07:58:25;;;;;;;7.00;5.00;;;;;;;;;;4965118;28;20470;-58
2022/11/11 08:00:51;;;;;;;5.27;4.10;;;;;;;;;;4960301;28;20417;-57
2022/11/11 08:03:17;;;;;;;4.33;3.93;;;;;;;;;;4964659;28;20965;-57
2022/11/11 08:05:43;;;;;;;5.50;4.03;;;;;;;;;;4940830;28;20460;-57
2022/11/11 08:08:09;;;;;;;4.50;4.10;;;;;;;;;;4962429;28;21169;-57
2022/11/11 08:10:35;;;;;;;4.57;4.17;;;;;;;;;;4943962;28;20536;-56
2022/11/11 08:15:46;;;;;;;5.43;3.97;;;;;;;;;;4920259;28;20968;-56
2022/11/11 08:18:11;;;;;;;5.47;3.80;;;;;;;;;;4965049;28;20478;-56
2022/11/11 08:20:37;;;;;;;4.50;3.80;;;;;;;;;;4956882;28;20489;-55
2022/11/11 08:23:04;;;;;;;4.13;3.67;;;;;;;;;;4968075;28;20442;-55
2022/11/11 08:25:30;;;;;;;10.40;5.33;;;;;;;;;;4937487;28;20600;-57
2022/11/11 08:28:05;;;;;;;6.87;3.87;;;;;;;;;;4964093;28;20469;-56
2022/11/11 08:30:31;;;;;;;8.13;4.40;;;;;;;;;;4960792;28;21672;-56
2022/11/11 08:32:58;;;;;;;5.70;3.50;;;;;;;;;;4962499;28;20473;-55
2022/11/11 08:35:24;;;;;;;4.00;3.70;;;;;;;;;;4943109;28;20491;-56
2022/11/11 08:37:50;;;;;;;5.10;4.10;;;;;;;;;;4964711;28;20477;-58
2022/11/11 08:40:16;;;;;;;6.33;4.03;;;;;;;;;;4961037;28;20704;-58
2022/11/11 08:42:42;;;;;;;4.57;3.93;;;;;;;;;;4915609;28;22104;-55
2022/11/11 08:45:08;;;;;;;3.90;3.23;;;;;;;;;;4932704;28;20442;-57
2022/11/11 08:47:35;;;;;;;6.20;4.23;;;;;;;;;;4930273;28;24498;-56
2022/11/11 08:50:02;;;;;;;5.70;3.53;;;;;;;;;;4943143;28;20489;-55
2022/11/11 08:52:28;;;;;;;5.53;4.07;;;;;;;;;;4944362;28;20437;-57
2022/11/11 08:54:54;;;;;;;6.33;4.63;;;;;;;;;;4948766;28;20445;-55
2022/11/11 08:57:20;;;;;;;4.30;3.87;;;;;;;;;;4957747;28;20477;-56
2022/11/11 08:59:46;;;;;;;5.60;4.70;;;;;;;;;;4943198;28;20450;-57
2022/11/11 09:02:12;;;;;;;5.57;4.80;;;;;;;;;;4960763;28;20911;-57
2022/11/11 09:04:39;;;;;;;7.73;4.80;;;;;;;;;;4943995;28;20442;-57
2022/11/11 09:07:05;;;;;;;5.27;3.73;;;;;;;;;;4959317;28;20446;-57
2022/11/11 09:09:31;;;;;;;7.50;4.33;;;;;;;;;;4939142;28;20456;-57
2022/11/11 09:11:57;;;;;;;8.57;4.10;;;;;;;;;;4941438;28;22645;-56
2022/11/11 09:14:23;;;;;;;10.20;4.90;;;;;;;;;;4944815;28;20426;-57
2022/11/11 09:16:49;;;;;;;8.37;4.00;;;;;;;;;;4937069;28;21123;-57
2022/11/11 09:19:15;;;;;;;6.60;3.80;;;;;;;;;;4964026;28;20450;-56
2022/11/11 09:21:41;;;;;;;6.73;5.80;;;;;;;;;;4940621;28;21121;-58
2022/11/11 09:24:07;;;;;;;6.43;4.30;;;;;;;;;;4964142;28;21489;-58
2022/11/11 09:26:33;;;;;;;7.00;4.60;;;;;;;;;;4960865;28;20931;-59
2022/11/11 09:28:59;;;;;;;6.90;4.10;;;;;;;;;;4948107;28;20472;-57
2022/11/11 09:31:25;;;;;;;5.20;3.87;;;;;;;;;;4952933;28;20965;-56
2022/11/11 09:33:51;;;;;;;8.37;5.50;;;;;;;;;;4937843;28;20473;-57
2022/11/11 09:36:17;;;;;;;5.83;4.53;;;;;;;;;;4962290;28;20927;-56
2022/11/11 09:38:43;;;;;;;6.50;4.27;;;;;;;;;;4939134;28;20494;-56
2022/11/11 09:41:12;;;;;;;4.73;3.53;;;;;;;;;;4962282;28;20448;-57
2022/11/11 09:43:55;;;;;;;5.30;3.53;;;;;;;;;;4934950;28;20438;-58
2022/11/11 09:46:24;;;;;;;7.60;3.83;;;;;;;;;;4959929;28;20473;-55
2022/11/11 09:48:53;;;;;;;5.73;4.47;;;;;;;;;;4939748;28;20446;-59
2022/11/11 09:51:39;;;;;;;10.97;4.90;;;;;;;;;;4958607;28;21018;-57
2022/11/11 09:54:06;;;;;;;4.60;3.80;;;;;;;;;;4906332;28;20571;-55
2022/11/11 09:56:33;;;;;;;4.73;3.20;;;;;;;;;;4944147;28;20445;-57
2022/11/11 09:59:06;;;;;;;5.73;3.83;;;;;;;;;;4920679;28;21251;-57
2022/11/11 10:01:33;;;;;;;4.60;4.13;;;;;;;;;;4963611;28;20431;-56
2022/11/11 10:04:08;;;;;;;8.50;5.13;;;;;;;;;;4918453;28;20788;-57
2022/11/11 10:06:34;;;;;;;5.17;3.47;;;;;;;;;;4959124;28;20465;-57
2022/11/11 10:09:01;;;;;;;5.07;2.93;;;;;;;;;;4919233;28;21023;-56
2022/11/11 10:11:36;;;;;;;5.47;3.90;;;;;;;;;;4962094;28;20472;-57
2022/11/11 10:14:02;;;;;;;5.73;5.07;;;;;;;;;;4921847;28;20435;-57
2022/11/11 10:16:32;;;;;;;6.60;4.50;;;;;;;;;;4958162;28;20434;-57
2022/11/11 10:19:04;;;;;;;5.20;4.10;;;;;;;;;;4942170;28;20484;-58
2022/11/11 10:21:49;;;;;;;8.10;5.13;;;;;;;;;;4943572;28;20449;-57
2022/11/11 10:24:16;;;;;;;9.83;5.17;;;;;;;;;;4940269;28;20500;-57
2022/11/11 10:26:43;;;;;;;5.40;4.90;;;;;;;;;;4962033;28;20462;-57
2022/11/11 10:29:11;;;;;;;5.70;4.07;;;;;;;;;;4901590;28;20485;-56
2022/11/11 10:31:37;;;;;;;7.47;4.40;;;;;;;;;;4941704;28;20493;-57
2022/11/11 10:34:04;;;;;;;6.63;4.37;;;;;;;;;;4939805;28;20459;-58
2022/11/11 10:36:30;;;;;;;7.23;5.27;;;;;;;;;;4960163;28;21001;-56
2022/11/11 10:39:00;;;;;;;6.27;4.80;;;;;;;;;;4940012;28;20481;-57
2022/11/11 10:41:29;;;;;;;6.90;3.90;;;;;;;;;;4960681;28;20583;-57
2022/11/11 10:43:55;;;;;;;14.70;4.60;;;;;;;;;;4920778;28;20584;-57
2022/11/11 10:46:22;;;;;;;9.13;6.00;;;;;;;;;;4943559;28;20445;-57
2022/11/11 10:49:02;;;;;;;5.73;5.13;;;;;;;;;;4941584;28;20453;-57
2022/11/11 10:51:30;;;;;;;7.93;4.50;;;;;;;;;;4957678;28;20530;-56
2022/11/11 10:54:19;;;;;;;12.43;5.60;;;;;;;;;;4925116;28;20497;-55
2022/11/11 10:56:51;;;;;;;9.47;5.30;;;;;;;;;;4951144;28;20847;-56
2022/11/11 10:59:18;;;;;;;8.33;6.30;;;;;;;;;;4941421;28;20487;-57
2022/11/11 11:01:50;;;;;;;10.00;5.63;;;;;;;;;;4940044;28;20450;-56
2022/11/11 11:04:40;;;;;;;12.87;4.70;;;;;;;;;;4918588;28;20490;-57
2022/11/11 11:07:05;;;;;;;7.63;5.03;;;;;;;;;;4952911;28;20809;-56
2022/11/11 11:09:37;;;;;;;6.33;4.73;;;;;;;;;;4919318;28;20456;-56
2022/11/11 11:12:11;;;;;;;6.57;5.07;;;;;;;;;;4942666;28;20442;-56
2022/11/11 11:14:39;;;;;;;7.60;5.83;;;;;;;;;;4936475;28;20523;-57
2022/11/11 11:17:10;;;;;;;8.30;5.50;;;;;;;;;;4941222;28;20996;-56
2022/11/11 11:19:36;;;;;;;10.73;7.90;;;;;;;;;;4921305;28;20454;-57
2022/11/11 11:22:02;;;;;;;8.53;7.30;;;;;;;;;;4961648;28;20675;-57
2022/11/11 11:24:30;;;;;;;6.47;5.77;;;;;;;;;;4918164;28;20469;-56
2022/11/11 11:26:57;;;;;;;7.13;6.43;;;;;;;;;;4963741;28;20509;-56
2022/11/11 11:29:26;;;;;;;5.30;4.80;;;;;;;;;;4948859;28;20636;-57
2022/11/11 11:31:52;;;;;;;10.53;6.60;;;;;;;;;;4961027;28;20438;-57
2022/11/11 11:34:18;;;;;;;8.13;6.13;;;;;;;;;;4917545;28;20466;-57
2022/11/11 11:36:47;;;;;;;11.70;5.30;;;;;;;;;;4958931;28;20445;-58
2022/11/11 11:39:13;;;;;;;6.43;5.90;;;;;;;;;;4920346;28;20493;-57
2022/11/11 11:41:40;;;;;;;8.80;5.83;;;;;;;;;;4958831;28;20433;-57
2022/11/11 11:44:28;;;;;;;6.77;5.30;;;;;;;;;;4938355;28;20458;-57
2022/11/11 11:46:55;;;;;;;12.20;5.33;;;;;;;;;;4959803;28;20531;-57
2022/11/11 11:49:21;;;;;;;7.13;5.20;;;;;;;;;;4940400;28;20558;-58
2022/11/11 11:52:07;;;;;;;8.60;5.87;;;;;;;;;;4959677;28;20580;-58
2022/11/11 11:54:38;;;;;;;6.73;6.13;;;;;;;;;;4934754;28;20470;-57
2022/11/11 11:57:04;;;;;;;8.10;7.30;;;;;;;;;;4963389;28;20962;-57
2022/11/11 11:59:38;;;;;;;6.67;6.07;;;;;;;;;;4941097;28;20489;-58
2022/11/11 12:02:04;;;;;;;8.13;5.97;;;;;;;;;;4943372;28;20481;-57
2022/11/11 12:04:52;;;;;;;8.63;6.23;;;;;;;;;;4921546;28;20469;-57
2022/11/11 12:07:21;;;;;;;8.97;6.57;;;;;;;;;;4948662;28;20441;-56
2022/11/11 12:09:56;;;;;;;9.73;7.13;;;;;;;;;;4956565;28;21244;-55
2022/11/11 12:12:22;;;;;;;6.60;6.00;;;;;;;;;;4934202;28;20440;-55
2022/11/11 12:15:06;;;;;;;9.60;6.37;;;;;;;;;;4933524;28;20442;-57
2022/11/11 12:17:34;;;;;;;9.40;7.87;;;;;;;;;;4943131;28;21030;-56
2022/11/11 12:20:07;;;;;;;8.70;7.63;;;;;;;;;;4962628;28;20441;-57
2022/11/11 12:22:39;;;;;;;8.57;6.83;;;;;;;;;;4938322;28;20438;-57
2022/11/11 12:25:18;;;;;;;7.33;6.40;;;;;;;;;;4920266;28;20520;-57
2022/11/11 12:28:03;;;;;;;7.30;5.97;;;;;;;;;;4947572;28;21430;-57
2022/11/11 12:30:29;;;;;;;8.77;6.77;;;;;;;;;;4947352;28;20449;-57
2022/11/11 12:33:14;;;;;;;6.83;5.13;;;;;;;;;;4964947;28;20441;-56
2022/11/11 12:35:59;;;;;;;7.80;5.63;;;;;;;;;;4938157;28;20182;-57
2022/11/11 12:38:25;;;;;;;9.63;6.47;;;;;;;;;;4960507;28;20978;-56
2022/11/11 12:40:57;;;;;;;8.53;6.10;;;;;;;;;;4959827;28;20977;-56
2022/11/11 12:43:50;;;;;;;14.00;5.60;;;;;;;;;;4930917;28;20449;-56
2022/11/11 12:46:19;;;;;;;7.60;5.80;;;;;;;;;;4961364;28;20430;-56
2022/11/11 12:48:49;;;;;;;9.40;6.60;;;;;;;;;;4957731;28;20430;-57
2022/11/11 12:51:33;;;;;;;8.10;5.63;;;;;;;;;;4964194;28;20438;-56
2022/11/11 12:54:09;;;;;;;8.00;6.07;;;;;;;;;;4941131;28;20442;-58
2022/11/11 12:56:55;;;;;;;9.60;5.83;;;;;;;;;;4963639;28;20441;-56
2022/11/11 12:59:40;;;;;;;9.77;5.80;;;;;;;;;;4932099;28;21002;-57
2022/11/11 13:02:15;;;;;;;13.17;5.90;;;;;;;;;;4933458;28;20580;-56
2022/11/11 13:04:48;;;;;;;6.33;5.00;;;;;;;;;;4960079;28;20468;-57
2022/11/11 13:07:13;;;;;;;7.33;5.50;;;;;;;;;;4920404;28;20985;-57
2022/11/11 13:09:49;;;;;;;8.50;6.33;;;;;;;;;;4962654;28;20434;-56
2022/11/11 13:12:24;;;;;;;7.30;5.23;;;;;;;;;;4933110;28;20205;-56
2022/11/11 13:15:09;;;;;;;8.63;4.97;;;;;;;;;;4950504;28;20841;-56
2022/11/11 13:17:35;;;;;;;5.60;4.80;;;;;;;;;;4941535;28;21036;-56
2022/11/11 13:20:03;;;;;;;6.17;4.57;;;;;;;;;;4966178;28;20950;-56
2022/11/11 13:22:29;;;;;;;8.73;5.60;;;;;;;;;;4943207;28;20781;-57
2022/11/11 13:24:55;;;;;;;6.33;5.07;;;;;;;;;;4967240;28;21283;-58
2022/11/11 13:27:48;;;;;;;6.00;5.40;;;;;;;;;;4924805;28;20460;-58
2022/11/11 13:30:17;;;;;;;6.90;5.00;;;;;;;;;;4962375;28;21721;-57
2022/11/11 13:32:48;;;;;;;7.60;5.20;;;;;;;;;;4946301;28;20652;-57
2022/11/11 13:35:39;;;;;;;10.53;5.20;;;;;;;;;;4945652;28;20445;-57
2022/11/11 13:38:05;;;;;;;7.57;6.80;;;;;;;;;;4955319;28;20482;-56
2022/11/11 13:40:36;;;;;;;8.63;5.27;;;;;;;;;;4949901;28;22070;-56
2022/11/11 13:43:03;;;;;;;6.73;5.90;;;;;;;;;;4943677;28;20446;-56
2022/11/11 13:45:33;;;;;;;8.53;5.70;;;;;;;;;;4945061;28;21008;-56
2022/11/11 13:47:59;;;;;;;12.43;5.47;;;;;;;;;;4954386;28;20532;-55
2022/11/11 13:50:29;;;;;;;6.93;5.10;;;;;;;;;;4956068;28;20441;-56
2022/11/11 13:53:00;;;;;;;8.90;4.87;;;;;;;;;;4947875;28;20446;-60
2022/11/11 13:55:28;;;;;;;6.60;5.00;;;;;;;;;;4940778;28;20518;-57
2022/11/11 13:57:55;;;;;;;7.80;5.90;;;;;;;;;;4951461;28;21464;-59
2022/11/11 14:00:20;;;;;;;8.90;5.40;;;;;;;;;;4963662;28;20450;-59
2022/11/11 14:02:46;;;;;;;9.63;4.93;;;;;;;;;;4939461;28;20433;-59
2022/11/11 14:05:12;;;;;;;5.60;5.10;;;;;;;;;;4964133;28;20438;-59
2022/11/11 14:07:47;;;;;;;7.60;4.60;;;;;;;;;;4941108;28;20487;-58
2022/11/11 14:10:17;;;;;;;6.80;5.03;;;;;;;;;;4957376;28;20464;-58
2022/11/11 14:12:44;;;;;;;6.60;4.90;;;;;;;;;;4926266;28;20449;-57
2022/11/11 14:15:29;;;;;;;7.63;5.37;;;;;;;;;;4946981;28;20505;-57
2022/11/11 14:17:55;;;;;;;10.00;4.57;;;;;;;;;;4949416;28;20474;-56
2022/11/11 14:20:50;;;;;;;16.23;5.73;;;;;;;;;;4946306;28;20430;-56
2022/11/11 14:23:35;;;;;;;6.70;4.50;;;;;;;;;;4955561;28;20446;-59
2022/11/11 14:26:10;;;;;;;6.43;5.10;;;;;;;;;;4938016;28;20434;-57
2022/11/11 14:28:40;;;;;;;7.47;5.47;;;;;;;;;;4965147;28;20985;-56
2022/11/11 14:31:11;;;;;;;6.10;4.90;;;;;;;;;;4953356;28;20663;-57
2022/11/11 14:33:56;;;;;;;4.87;4.37;;;;;;;;;;4962892;28;20439;-55
2022/11/11 14:36:34;;;;;;;9.23;4.80;;;;;;;;;;4937925;28;20524;-55
2022/11/11 14:39:19;;;;;;;5.83;3.97;;;;;;;;;;4953795;28;20481;-57
2022/11/11 14:41:51;;;;;;;9.90;4.50;;;;;;;;;;4954363;28;21051;-57
2022/11/11 14:44:27;;;;;;;12.83;5.10;;;;;;;;;;4909660;28;20464;-56
2022/11/11 14:47:02;;;;;;;5.07;4.43;;;;;;;;;;4932403;28;20438;-58
2022/11/11 14:49:44;;;;;;;8.43;4.40;;;;;;;;;;4959130;28;20433;-56
2022/11/11 14:52:22;;;;;;;13.03;4.40;;;;;;;;;;4960864;28;20430;-56
2022/11/11 14:54:51;;;;;;;9.70;5.30;;;;;;;;;;4960533;28;20581;-56
2022/11/11 14:57:21;;;;;;;8.10;5.00;;;;;;;;;;4911891;28;20430;-56
2022/11/11 14:59:47;;;;;;;6.47;4.27;;;;;;;;;;4943123;28;20569;-54
2022/11/11 15:02:18;;;;;;;6.77;5.50;;;;;;;;;;4906626;28;20455;-56
2022/11/11 15:04:44;;;;;;;8.33;5.33;;;;;;;;;;4935422;28;20442;-58
2022/11/11 15:07:37;;;;;;;8.87;5.13;;;;;;;;;;4927196;28;20449;-57
2022/11/11 15:10:06;;;;;;;6.80;4.97;;;;;;;;;;4954596;28;20470;-58
2022/11/11 15:12:52;;;;;;;8.13;5.03;;;;;;;;;;4926391;28;20844;-56
2022/11/11 15:15:21;;;;;;;8.43;4.77;;;;;;;;;;4940241;28;20925;-56
2022/11/11 15:17:53;;;;;;;11.27;4.70;;;;;;;;;;4909260;28;20469;-55
2022/11/11 15:20:19;;;;;;;8.80;4.90;;;;;;;;;;4936548;28;21520;-56
2022/11/11 15:23:04;;;;;;;6.27;4.47;;;;;;;;;;4945293;28;20543;-56
2022/11/11 15:25:33;;;;;;;11.47;4.07;;;;;;;;;;4953605;28;20434;-56
2022/11/11 15:28:01;;;;;;;8.43;4.30;;;;;;;;;;4961235;28;20433;-56
2022/11/11 15:30:45;;;;;;;8.20;4.30;;;;;;;;;;4936726;28;20461;-56
2022/11/11 15:33:23;;;;;;;8.20;4.10;;;;;;;;;;4962283;28;20506;-56
2022/11/11 15:35:50;;;;;;;7.40;4.27;;;;;;;;;;4921893;28;21134;-54
2022/11/11 15:38:16;;;;;;;6.57;4.67;;;;;;;;;;4958759;28;20470;-55
2022/11/11 15:40:49;;;;;;;9.47;4.20;;;;;;;;;;4932668;28;20430;-56
2022/11/11 15:43:20;;;;;;;7.73;4.40;;;;;;;;;;4961140;28;20466;-56
2022/11/11 15:45:46;;;;;;;5.70;4.77;;;;;;;;;;4923095;28;20472;-54
2022/11/11 15:48:16;;;;;;;11.00;4.43;;;;;;;;;;4958045;28;20427;-57
2022/11/11 15:50:42;;;;;;;6.43;4.13;;;;;;;;;;4918403;28;20796;-56
2022/11/11 15:53:10;;;;;;;7.67;3.97;;;;;;;;;;4954385;28;20445;-57
2022/11/11 15:55:38;;;;;;;6.10;5.10;;;;;;;;;;4937560;28;20444;-57
2022/11/11 15:58:10;;;;;;;8.40;5.30;;;;;;;;;;4962029;28;21021;-57
2022/11/11 16:00:36;;;;;;;5.63;4.17;;;;;;;;;;4934764;28;20452;-57
2022/11/11 16:03:02;;;;;;;5.40;4.27;;;;;;;;;;4956606;28;20446;-57
2022/11/11 16:05:28;;;;;;;12.03;5.43;;;;;;;;;;4935077;28;20444;-57
2022/11/11 16:07:55;;;;;;;8.87;4.80;;;;;;;;;;4957075;28;20923;-56